Time;durP1;ratioP1;P1;durP2;ratioP2;P2;SDS_P1;SDS_P2;PMS_P1;PMS_P2;Temp;Humidity;BMP_temperature;BMP_pressure;BME280_temperature;BME280_humidity;BME280_pressure;Samples;Min_cycle;Max_cycle;Signal;HPM_P1;HPM_P2
2024/03/25 00:01:06;;;;;;;11.10;5.50;;;;;;;6.04;91.78;99255.30;123278;1099;104392;-75
2024/03/25 00:03:44;;;;;;;11.70;5.60;;;;;;;6.02;92.32;99248.29;123496;1099;104276;-74
2024/03/25 00:06:15;;;;;;;12.90;5.83;;;;;;;5.99;92.31;99227.36;123432;1098;104725;-74
2024/03/25 00:08:47;;;;;;;12.17;5.50;;;;;;;5.94;92.72;99214.14;123480;1099;104762;-75
2024/03/25 00:11:18;;;;;;;13.35;5.70;;;;;;;5.94;93.63;99188.11;123319;1099;104804;-74
2024/03/25 00:13:49;;;;;;;10.53;4.87;;;;;;;5.95;93.70;99182.05;123432;1099;104322;-75
2024/03/25 00:16:21;;;;;;;14.43;5.67;;;;;;;5.95;93.00;99189.86;123478;1098;104316;-74
2024/03/25 00:18:52;;;;;;;13.63;5.80;;;;;;;5.96;93.97;99172.53;123325;1099;104389;-74
2024/03/25 00:21:24;;;;;;;12.70;5.80;;;;;;;5.95;92.83;99166.42;123468;1099;104303;-75
2024/03/25 00:23:56;;;;;;;16.67;6.17;;;;;;;5.98;94.49;99163.08;123472;1099;104316;-75
2024/03/25 00:26:28;;;;;;;14.23;5.57;;;;;;;5.96;93.26;99167.33;123531;1099;104256;-74
2024/03/25 00:28:59;;;;;;;13.23;5.90;;;;;;;5.94;93.67;99167.28;123427;1099;104233;-75
2024/03/25 00:31:30;;;;;;;15.45;6.40;;;;;;;5.91;93.07;99180.20;123545;1099;104489;-75
2024/03/25 00:34:01;;;;;;;12.40;5.60;;;;;;;5.87;93.11;99189.60;123438;1099;104351;-75
2024/03/25 00:36:33;;;;;;;14.10;6.17;;;;;;;5.86;93.34;99181.74;123410;1097;104328;-75
2024/03/25 00:39:05;;;;;;;13.13;5.67;;;;;;;5.81;93.65;99180.71;123498;1098;104790;-75
2024/03/25 00:41:37;;;;;;;11.90;5.33;;;;;;;5.80;93.54;99186.73;123461;1099;104351;-75
2024/03/25 00:44:08;;;;;;;12.97;5.87;;;;;;;5.76;93.35;99198.78;123408;1099;104379;-75
2024/03/25 00:46:41;;;;;;;13.60;5.43;;;;;;;5.74;94.04;99203.93;123164;1099;104730;-75
2024/03/25 00:49:13;;;;;;;13.17;5.70;;;;;;;5.68;93.50;99211.53;123519;1099;104270;-75
2024/03/25 00:51:47;;;;;;;15.40;6.00;;;;;;;5.65;93.68;99211.42;123605;1099;104361;-75
2024/03/25 00:54:19;;;;;;;14.80;6.25;;;;;;;5.65;94.19;99208.81;123495;1099;104348;-74
2024/03/25 00:56:51;;;;;;;16.80;6.43;;;;;;;5.62;93.43;99219.12;123439;1099;104347;-74
2024/03/25 00:59:22;;;;;;;14.07;6.20;;;;;;;5.63;94.04;99227.84;123455;1098;104272;-75
2024/03/25 01:01:53;;;;;;;18.95;7.30;;;;;;;5.63;93.93;99230.44;123481;1099;104168;-74
2024/03/25 01:04:25;;;;;;;14.67;6.30;;;;;;;5.62;94.86;99213.05;123238;1099;104764;-74
2024/03/25 01:06:56;;;;;;;14.77;6.90;;;;;;;5.60;94.70;99193.90;123277;1099;117809;-75
2024/03/25 01:09:27;;;;;;;15.47;6.83;;;;;;;5.59;95.52;99198.19;123511;1099;104331;-76
2024/03/25 01:11:59;;;;;;;16.77;7.07;;;;;;;5.57;95.25;99205.08;123621;1099;104242;-76
2024/03/25 01:14:30;;;;;;;13.90;5.77;;;;;;;5.57;95.05;99195.54;123743;1099;104711;-75
2024/03/25 01:17:01;;;;;;;12.63;6.00;;;;;;;5.56;95.62;99187.68;123554;1099;104270;-76
2024/03/25 01:19:33;;;;;;;14.93;6.40;;;;;;;5.56;95.48;99192.88;123597;1099;104271;-76
2024/03/25 01:22:05;;;;;;;12.33;6.10;;;;;;;5.56;95.40;99182.47;123789;1099;104396;-76
2024/03/25 01:24:36;;;;;;;13.20;5.97;;;;;;;5.56;95.43;99180.78;123636;1099;104283;-75
2024/03/25 01:27:08;;;;;;;15.10;6.20;;;;;;;5.58;95.86;99180.83;123578;1099;104290;-75
2024/03/25 01:29:39;;;;;;;13.90;5.80;;;;;;;5.58;95.87;99186.04;123550;1099;104268;-75
2024/03/25 01:32:10;;;;;;;14.33;6.20;;;;;;;5.60;95.98;99189.56;123463;1099;104313;-75
2024/03/25 01:34:42;;;;;;;13.87;5.67;;;;;;;5.56;95.68;99185.08;123415;1099;104863;-76
2024/03/25 01:37:13;;;;;;;12.80;5.40;;;;;;;5.53;95.79;99171.96;123462;1099;104249;-76
2024/03/25 01:39:44;;;;;;;10.60;4.70;;;;;;;5.52;96.14;99157.20;123499;1099;104245;-75
2024/03/25 01:42:16;;;;;;;7.93;4.10;;;;;;;5.49;97.00;99159.70;123610;1099;104271;-75
2024/03/25 01:44:48;;;;;;;9.33;4.13;;;;;;;5.42;96.55;99148.17;123474;1099;104381;-76
2024/03/25 01:47:19;;;;;;;11.80;4.13;;;;;;;5.37;96.56;99137.61;123424;1099;104252;-75
2024/03/25 01:49:53;;;;;;;8.10;4.07;;;;;;;5.37;96.88;99134.13;123499;1099;104325;-77
2024/03/25 01:52:26;;;;;;;9.23;4.15;;;;;;;5.36;96.29;99133.26;123494;1099;104663;-76
2024/03/25 01:54:57;;;;;;;8.47;4.23;;;;;;;5.38;96.87;99121.18;123602;1099;104207;-75
2024/03/25 01:57:29;;;;;;;8.55;4.45;;;;;;;5.42;96.37;99111.75;123232;1099;104326;-75
2024/03/25 02:00:00;;;;;;;10.33;4.60;;;;;;;5.44;96.63;99109.20;123449;1099;104402;-75
2024/03/25 02:02:37;;;;;;;12.00;4.70;;;;;;;5.46;97.13;99118.84;123216;1102;104421;-75
2024/03/25 02:05:09;;;;;;;12.35;4.80;;;;;;;5.53;97.00;99133.84;123193;1099;104270;-75
2024/03/25 02:07:41;;;;;;;11.97;5.10;;;;;;;5.57;96.62;99135.69;123460;1099;104222;-75
2024/03/25 02:10:14;;;;;;;14.33;5.90;;;;;;;5.52;96.45;99139.86;123535;1099;104283;-76
2024/03/25 02:12:47;;;;;;;10.87;5.27;;;;;;;5.48;95.96;99134.50;123523;1099;104380;-75
2024/03/25 02:15:19;;;;;;;9.60;5.03;;;;;;;5.44;96.66;99125.72;123496;1099;104252;-75
2024/03/25 02:17:50;;;;;;;14.43;6.23;;;;;;;5.46;96.41;99134.45;123436;1099;104304;-75
2024/03/25 02:20:21;;;;;;;15.17;5.90;;;;;;;5.44;96.47;99124.81;123283;1099;104270;-75
2024/03/25 02:22:53;;;;;;;13.53;6.37;;;;;;;5.44;96.59;99125.72;123486;1099;104294;-76
2024/03/25 02:25:25;;;;;;;10.45;5.00;;;;;;;5.52;97.13;99112.97;123212;1099;104447;-76
2024/03/25 02:27:56;;;;;;;13.17;5.40;;;;;;;5.55;97.68;99108.74;123693;1098;104268;-76
2024/03/25 02:30:28;;;;;;;13.07;5.77;;;;;;;5.54;97.05;99093.95;123501;1099;104347;-76
2024/03/25 02:32:59;;;;;;;12.70;5.53;;;;;;;5.55;97.92;99084.45;123555;1099;104350;-75
2024/03/25 02:35:31;;;;;;;12.60;6.17;;;;;;;5.58;97.20;99087.16;123487;1099;104284;-75
2024/03/25 02:38:04;;;;;;;13.47;5.87;;;;;;;5.64;97.33;99092.56;123489;1099;104360;-76
2024/03/25 02:40:36;;;;;;;13.97;5.90;;;;;;;5.64;96.99;99102.97;123593;1099;104377;-77
2024/03/25 02:43:08;;;;;;;13.53;6.40;;;;;;;5.61;96.72;99100.27;123411;1098;104237;-76
2024/03/25 02:45:39;;;;;;;14.47;6.30;;;;;;;5.57;97.06;99090.58;123481;1099;104268;-74
2024/03/25 02:48:11;;;;;;;13.70;6.13;;;;;;;5.54;97.08;99099.16;123445;1099;104351;-76
2024/03/25 02:50:42;;;;;;;13.37;6.23;;;;;;;5.54;97.13;99103.48;123472;1099;104374;-76
2024/03/25 02:53:13;;;;;;;10.70;5.50;;;;;;;5.50;96.98;99099.91;123465;1099;104293;-76
2024/03/25 02:55:45;;;;;;;14.07;6.27;;;;;;;5.48;97.00;99095.48;123652;1099;104223;-74
2024/03/25 02:58:16;;;;;;;14.50;6.57;;;;;;;5.47;97.10;99088.49;123228;1099;104325;-74
2024/03/25 03:00:47;;;;;;;15.80;6.80;;;;;;;5.44;97.22;99098.80;123515;1099;104869;-76
2024/03/25 03:03:19;;;;;;;17.40;7.53;;;;;;;5.46;97.43;99097.16;123497;1099;104345;-77
2024/03/25 03:05:50;;;;;;;17.80;7.30;;;;;;;5.43;97.05;99103.13;123234;1099;104415;-74
2024/03/25 03:08:21;;;;;;;17.53;7.20;;;;;;;5.45;97.04;99105.78;123234;1099;104364;-75
2024/03/25 03:10:53;;;;;;;20.17;7.70;;;;;;;5.46;97.73;99112.77;123451;1099;104844;-74
2024/03/25 03:13:24;;;;;;;16.67;7.13;;;;;;;5.43;97.46;99110.05;123453;1099;104255;-75
2024/03/25 03:15:55;;;;;;;15.90;7.00;;;;;;;5.41;97.83;99107.41;123461;1099;104363;-74
2024/03/25 03:18:27;;;;;;;16.53;7.27;;;;;;;5.43;97.82;99104.86;123199;1099;104730;-76
2024/03/25 03:20:58;;;;;;;16.57;7.43;;;;;;;5.42;98.40;99103.07;123656;1099;104312;-75
2024/03/25 03:23:30;;;;;;;16.40;7.37;;;;;;;5.39;97.87;99096.95;123632;1099;104386;-73
2024/03/25 03:26:02;;;;;;;16.43;7.27;;;;;;;5.40;98.38;99101.30;123586;1099;104385;-76
2024/03/25 03:28:33;;;;;;;17.30;7.17;;;;;;;5.46;98.47;99111.03;123397;1098;104284;-74
2024/03/25 03:31:05;;;;;;;16.63;7.43;;;;;;;5.46;98.08;99111.03;123487;1099;104699;-75
2024/03/25 03:33:36;;;;;;;16.60;7.80;;;;;;;5.44;98.55;99104.00;123411;1099;104272;-76
2024/03/25 03:36:08;;;;;;;18.70;7.70;;;;;;;5.43;97.99;99108.33;123473;1098;104274;-74
2024/03/25 03:38:40;;;;;;;19.93;7.93;;;;;;;5.40;98.56;99101.30;123436;1099;105731;-75
2024/03/25 03:41:11;;;;;;;19.33;7.70;;;;;;;5.37;98.10;99098.59;123538;1099;104410;-75
2024/03/25 03:43:43;;;;;;;19.13;7.90;;;;;;;5.36;99.05;99102.05;123579;1099;104278;-75
2024/03/25 03:46:14;;;;;;;20.13;9.07;;;;;;;5.31;99.36;99095.77;123517;1099;104280;-75
2024/03/25 03:48:45;;;;;;;21.50;9.20;;;;;;;5.31;99.38;99102.70;123548;1099;104252;-75
2024/03/25 03:51:17;;;;;;;22.37;10.13;;;;;;;5.28;99.39;99087.00;123486;1099;104294;-76
2024/03/25 03:53:48;;;;;;;26.80;11.07;;;;;;;5.26;99.03;99089.55;123557;1099;104437;-75
2024/03/25 03:56:19;;;;;;;24.80;10.63;;;;;;;5.24;99.39;99086.02;123596;1099;104357;-76
2024/03/25 03:58:51;;;;;;;22.70;9.60;;;;;;;5.24;99.51;99083.41;123456;1098;105700;-75
2024/03/25 04:01:22;;;;;;;20.20;8.40;;;;;;;5.24;99.72;99073.02;123543;1099;104271;-75
2024/03/25 04:03:53;;;;;;;17.80;7.40;;;;;;;5.24;99.40;99059.14;123477;1099;104339;-75
2024/03/25 04:06:25;;;;;;;18.27;7.03;;;;;;;5.27;100.00;99059.24;123465;1099;104345;-74
2024/03/25 04:08:57;;;;;;;17.47;7.20;;;;;;;5.29;100.00;99054.97;123490;1099;104342;-75
2024/03/25 04:11:28;;;;;;;18.07;7.70;;;;;;;5.31;99.65;99045.48;123449;1099;104388;-76
2024/03/25 04:14:00;;;;;;;16.27;6.93;;;;;;;5.34;99.84;99040.38;123487;1099;104275;-75
2024/03/25 04:16:31;;;;;;;16.17;7.00;;;;;;;5.37;99.79;99038.76;123466;1098;104293;-75
2024/03/25 04:19:03;;;;;;;15.80;6.73;;;;;;;5.42;99.68;99044.11;123407;1099;104702;-76
2024/03/25 04:21:34;;;;;;;13.20;5.60;;;;;;;5.42;99.93;99046.72;123465;1099;104351;-76
2024/03/25 04:24:06;;;;;;;13.50;5.83;;;;;;;5.36;99.02;99055.22;123253;1099;104338;-76
2024/03/25 04:26:38;;;;;;;14.90;5.43;;;;;;;5.30;99.19;99070.63;123471;1099;104280;-76
2024/03/25 04:29:09;;;;;;;15.07;5.43;;;;;;;5.26;99.09;99084.34;123412;1098;104293;-76
2024/03/25 04:31:40;;;;;;;13.13;5.67;;;;;;;5.23;99.20;99081.64;123458;1099;104348;-76
2024/03/25 04:34:13;;;;;;;12.75;5.75;;;;;;;5.22;99.39;99079.89;123529;1099;104267;-76
2024/03/25 04:36:44;;;;;;;14.37;5.97;;;;;;;5.21;100.00;99071.18;123452;1099;104226;-76
